Time;durP1;ratioP1;P1;durP2;ratioP2;P2;SDS_P1;SDS_P2;PMS_P1;PMS_P2;Temp;Humidity;BMP_temperature;BMP_pressure;BME280_temperature;BME280_humidity;BME280_pressure;Samples;Min_cycle;Max_cycle;Signal;HPM_P1;HPM_P2
2021/05/16 00:00:49;;;;;;;0;0;;;;;;;;;;;;;
2021/05/16 00:03:14;;;;;;;0.1;0.1;;;;;;;;;;;;;
2021/05/16 00:05:39;;;;;;;0.3;0.1;;;;;;;;;;;;;
2021/05/16 00:08:04;;;;;;;0;0;;;;;;;;;;;;;
2021/05/16 00:10:29;;;;;;;0.1;0;;;;;;;;;;;;;
2021/05/16 00:12:54;;;;;;;0;0;;;;;;;;;;;;;
2021/05/16 00:15:20;;;;;;;0.2;0.2;;;;;;;;;;;;;
2021/05/16 00:17:45;;;;;;;0.1;0;;;;;;;;;;;;;
2021/05/16 00:20:10;;;;;;;0;0;;;;;;;;;;;;;
2021/05/16 00:22:35;;;;;;;0.6;0.1;;;;;;;;;;;;;
2021/05/16 00:25:00;;;;;;;4.4;0.2;;;;;;;;;;;;;
2021/05/16 00:27:25;;;;;;;0.1;0.1;;;;;;;;;;;;;
2021/05/16 00:29:50;;;;;;;0.3;0.2;;;;;;;;;;;;;
2021/05/16 00:32:15;;;;;;;0;0;;;;;;;;;;;;;
2021/05/16 00:34:41;;;;;;;0;0;;;;;;;;;;;;;
2021/05/16 00:37:06;;;;;;;0.8;0.3;;;;;;;;;;;;;
2021/05/16 00:39:49;;;;;;;0.1;0.1;;;;;;;;;;;;;
2021/05/16 00:41:56;;;;;;;0.1;0.1;;;;;;;;;;;;;
2021/05/16 00:44:22;;;;;;;0.6;0.2;;;;;;;;;;;;;
2021/05/16 00:46:46;;;;;;;0.1;0.1;;;;;;;;;;;;;
2021/05/16 00:49:13;;;;;;;0.1;0.1;;;;;;;;;;;;;
2021/05/16 00:51:37;;;;;;;0;0;;;;;;;;;;;;;
2021/05/16 00:54:02;;;;;;;0;0;;;;;;;;;;;;;
2021/05/16 00:56:27;;;;;;;0;0;;;;;;;;;;;;;
2021/05/16 00:58:53;;;;;;;0.9;0.3;;;;;;;;;;;;;
2021/05/16 01:01:20;;;;;;;1.2;0.1;;;;;;;;;;;;;
2021/05/16 01:03:43;;;;;;;0;0;;;;;;;;;;;;;
2021/05/16 01:06:08;;;;;;;0;0;;;;;;;;;;;;;
2021/05/16 01:08:33;;;;;;;0;0;;;;;;;;;;;;;
2021/05/16 01:10:58;;;;;;;0.1;0;;;;;;;;;;;;;
2021/05/16 01:13:25;;;;;;;0.1;0.1;;;;;;;;;;;;;
2021/05/16 01:15:48;;;;;;;0;0;;;;;;;;;;;;;
2021/05/16 01:18:14;;;;;;;0.1;0.1;;;;;;;;;;;;;
2021/05/16 01:20:39;;;;;;;0.1;0.1;;;;;;;;;;;;;
2021/05/16 01:23:04;;;;;;;0.1;0.1;;;;;;;;;;;;;
2021/05/16 01:25:31;;;;;;;0;0;;;;;;;;;;;;;
2021/05/16 01:27:56;;;;;;;0;0;;;;;;;;;;;;;
2021/05/16 01:30:21;;;;;;;0.1;0.1;;;;;;;;;;;;;
2021/05/16 01:32:46;;;;;;;0;0;;;;;;;;;;;;;
2021/05/16 01:35:11;;;;;;;0;0;;;;;;;;;;;;;
2021/05/16 01:37:36;;;;;;;0;0;;;;;;;;;;;;;
2021/05/16 01:40:01;;;;;;;0;0;;;;;;;;;;;;;
2021/05/16 01:42:27;;;;;;;0.1;0.1;;;;;;;;;;;;;
2021/05/16 01:44:53;;;;;;;5.7;0.3;;;;;;;;;;;;;
2021/05/16 01:47:17;;;;;;;0;0;;;;;;;;;;;;;
2021/05/16 01:49:42;;;;;;;0;0;;;;;;;;;;;;;
2021/05/16 01:52:07;;;;;;;0;0;;;;;;;;;;;;;
2021/05/16 01:54:32;;;;;;;0.1;0.1;;;;;;;;;;;;;
2021/05/16 01:56:58;;;;;;;0;0;;;;;;;;;;;;;
2021/05/16 01:59:23;;;;;;;0.1;0.1;;;;;;;;;;;;;
2021/05/16 02:01:48;;;;;;;0;0;;;;;;;;;;;;;
2021/05/16 02:04:13;;;;;;;0;0;;;;;;;;;;;;;
2021/05/16 02:06:39;;;;;;;0;0;;;;;;;;;;;;;
2021/05/16 02:09:04;;;;;;;0;0;;;;;;;;;;;;;
2021/05/16 02:11:29;;;;;;;0;0;;;;;;;;;;;;;
2021/05/16 02:13:55;;;;;;;0.4;0.1;;;;;;;;;;;;;
2021/05/16 02:16:20;;;;;;;0.1;0.1;;;;;;;;;;;;;
2021/05/16 02:18:46;;;;;;;0.1;0.1;;;;;;;;;;;;;
2021/05/16 02:21:11;;;;;;;0.1;0.1;;;;;;;;;;;;;
2021/05/16 02:23:36;;;;;;;0.1;0.1;;;;;;;;;;;;;
2021/05/16 02:26:01;;;;;;;0.1;0.1;;;;;;;;;;;;;
2021/05/16 02:28:26;;;;;;;0.3;0.2;;;;;;;;;;;;;
2021/05/16 02:30:52;;;;;;;0.4;0.1;;;;;;;;;;;;;
2021/05/16 02:33:18;;;;;;;0.6;0.2;;;;;;;;;;;;;
2021/05/16 02:35:43;;;;;;;0.1;0.1;;;;;;;;;;;;;
2021/05/16 02:38:09;;;;;;;0;0;;;;;;;;;;;;;
2021/05/16 02:40:34;;;;;;;0.1;0.1;;;;;;;;;;;;;
2021/05/16 02:43:01;;;;;;;0.2;0.2;;;;;;;;;;;;;
2021/05/16 02:45:26;;;;;;;0.1;0.1;;;;;;;;;;;;;
2021/05/16 02:47:52;;;;;;;0.1;0.1;;;;;;;;;;;;;
2021/05/16 02:50:17;;;;;;;0.1;0.1;;;;;;;;;;;;;
2021/05/16 02:52:43;;;;;;;0;0;;;;;;;;;;;;;
2021/05/16 02:57:38;;;;;;;0.1;0.1;;;;;;;;;;;;;
2021/05/16 03:00:06;;;;;;;0;0;;;;;;;;;;;;;
2021/05/16 03:02:31;;;;;;;0.1;0.1;;;;;;;;;;;;;
2021/05/16 03:04:56;;;;;;;0.2;0.2;;;;;;;;;;;;;
2021/05/16 03:07:40;;;;;;;0.4;0.3;;;;;;;;;;;;;
2021/05/16 03:10:05;;;;;;;0.2;0.2;;;;;;;;;;;;;
2021/05/16 03:12:30;;;;;;;0.2;0.2;;;;;;;;;;;;;
2021/05/16 03:15:05;;;;;;;0;0;;;;;;;;;;;;;
2021/05/16 03:17:30;;;;;;;0.2;0.2;;;;;;;;;;;;;
2021/05/16 03:19:55;;;;;;;0.2;0.1;;;;;;;;;;;;;
2021/05/16 03:22:20;;;;;;;0.3;0.2;;;;;;;;;;;;;
2021/05/16 03:24:45;;;;;;;0.5;0.1;;;;;;;;;;;;;
2021/05/16 03:27:10;;;;;;;0.3;0.2;;;;;;;;;;;;;
2021/05/16 03:29:36;;;;;;;0.6;0.4;;;;;;;;;;;;;
2021/05/16 03:32:00;;;;;;;0.1;0.1;;;;;;;;;;;;;
2021/05/16 03:34:26;;;;;;;0.1;0.1;;;;;;;;;;;;;
2021/05/16 03:36:51;;;;;;;0.2;0.2;;;;;;;;;;;;;
2021/05/16 03:39:16;;;;;;;0.2;0.2;;;;;;;;;;;;;
2021/05/16 03:41:41;;;;;;;0.1;0.1;;;;;;;;;;;;;
2021/05/16 03:44:06;;;;;;;0.2;0.2;;;;;;;;;;;;;
2021/05/16 03:46:32;;;;;;;0.2;0.2;;;;;;;;;;;;;
2021/05/16 03:48:59;;;;;;;0.1;0.1;;;;;;;;;;;;;
2021/05/16 03:51:25;;;;;;;0.1;0.1;;;;;;;;;;;;;
2021/05/16 03:53:48;;;;;;;0;0;;;;;;;;;;;;;
2021/05/16 03:56:13;;;;;;;0.1;0.1;;;;;;;;;;;;;
2021/05/16 03:59:01;;;;;;;0.1;0.1;;;;;;;;;;;;;
2021/05/16 04:02:30;;;;;;;0.1;0.1;;;;;;;6.55;91.44922;929.4835;;;;
2021/05/16 04:04:55;;;;;;;0.2;0.2;;;;;;;6.58;91.1748;929.3928;;;;
2021/05/16 04:07:21;;;;;;;0.2;0.2;;;;;;;6.73;90.69434;929.3865;;;;
2021/05/16 04:09:46;;;;;;;0.3;0.3;;;;;;;6.68;89.91699;929.4788;;;;
2021/05/16 04:12:13;;;;;;;0.3;0.3;;;;;;;6.69;89.16992;929.3886;;;;
2021/05/16 04:14:38;;;;;;;0.2;0.2;;;;;;;6.7;88.86621;929.3658;;;;
2021/05/16 04:17:07;;;;;;;0.2;0.2;;;;;;;6.55;89.37988;929.3608;;;;
2021/05/16 04:19:32;;;;;;;0.5;0.2;;;;;;;6.45;90.05762;929.4326;;;;
2021/05/16 04:21:58;;;;;;;0.1;0.1;;;;;;;6.53;89.54492;929.4753;;;;
2021/05/16 04:24:23;;;;;;;0.2;0.2;;;;;;;6.65;89.20801;929.4397;;;;
2021/05/16 04:26:49;;;;;;;0.1;0.1;;;;;;;6.66;88.63281;929.4579;;;;
2021/05/16 04:29:14;;;;;;;0.3;0.3;;;;;;;6.62;88.76074;929.4204;;;;
2021/05/16 04:31:40;;;;;;;0.2;0.2;;;;;;;6.61;88.75684;929.427;;;;
2021/05/16 04:34:05;;;;;;;0.3;0.3;;;;;;;6.74;88.23047;929.5022;;;;
2021/05/16 04:36:31;;;;;;;0.5;0.4;;;;;;;6.69;87.59863;929.4939;;;;
2021/05/16 04:38:57;;;;;;;0.4;0.4;;;;;;;6.69;87.5293;929.4875;;;;
2021/05/16 04:41:22;;;;;;;1.4;1.1;;;;;;;6.6;87.99707;929.4824;;;;
2021/05/16 04:43:48;;;;;;;9.6;5.2;;;;;;;6.61;88.41992;929.5721;;;;
2021/05/16 04:46:13;;;;;;;0.6;0.5;;;;;;;6.48;88.26758;929.5505;;;;
2021/05/16 04:48:39;;;;;;;0.4;0.4;;;;;;;6.4;88.43164;929.5899;;;;
2021/05/16 04:51:05;;;;;;;0.2;0.2;;;;;;;6.44;88.57422;929.5914;;;;
2021/05/16 04:53:34;;;;;;;0.3;0.2;;;;;;;6.38;89.06055;929.6205;;;;
2021/05/16 04:55:56;;;;;;;0.6;0.3;;;;;;;6.36;89.29492;929.5508;;;;
2021/05/16 04:58:23;;;;;;;0.3;0.3;;;;;;;6.46;89.16797;929.6557;;;;
2021/05/16 05:00:48;;;;;;;0.6;0.3;;;;;;;6.51;88.89453;929.7622;;;;
2021/05/16 05:03:15;;;;;;;0.5;0.5;;;;;;;6.43;88.86914;929.725;;;;
2021/05/16 05:05:39;;;;;;;0.2;0.2;;;;;;;6.42;88.87598;929.7233;;;;
2021/05/16 05:08:07;;;;;;;0.1;0.1;;;;;;;6.44;89.06055;929.6713;;;;
2021/05/16 05:10:32;;;;;;;0.2;0.2;;;;;;;6.51;89.29102;929.6878;;;;
2021/05/16 05:12:57;;;;;;;0.1;0.1;;;;;;;6.62;89.4834;929.7201;;;;
2021/05/16 05:15:22;;;;;;;0.4;0.3;;;;;;;7.69;87.73535;929.6417;;;;
2021/05/16 05:17:47;;;;;;;0.8;0.6;;;;;;;9.83;81.26465;929.5907;;;;
2021/05/16 05:20:13;;;;;;;0.2;0.2;;;;;;;11.49;70.94727;929.4708;;;;
2021/05/16 05:22:38;;;;;;;0.4;0.3;;;;;;;12.35;67.66895;929.4996;;;;
2021/05/16 05:25:03;;;;;;;0.1;0.1;;;;;;;13.45;63.32324;929.5353;;;;
2021/05/16 05:27:28;;;;;;;0.1;0.1;;;;;;;15.34;57.44629;929.4608;;;;
2021/05/16 05:29:53;;;;;;;0.1;0.1;;;;;;;15.19;56.05273;929.4149;;;;
2021/05/16 05:32:18;;;;;;;0.1;0.1;;;;;;;16.3;53.2334;929.5078;;;;
2021/05/16 05:34:45;;;;;;;0;0;;;;;;;16.56;51.66602;929.338;;;;
2021/05/16 05:37:10;;;;;;;0.1;0.1;;;;;;;17.8;48.49219;929.3864;;;;
2021/05/16 05:39:35;;;;;;;0;0;;;;;;;17.7;48.0625;929.418;;;;
2021/05/16 05:42:00;;;;;;;0.2;0.1;;;;;;;18.33;47.63184;929.3872;;;;
2021/05/16 05:44:25;;;;;;;0;0;;;;;;;19.05;45.01953;929.351;;;;
2021/05/16 05:46:51;;;;;;;0;0;;;;;;;19.07;45.19824;929.3474;;;;
2021/05/16 05:49:16;;;;;;;0;0;;;;;;;18.76;46.31738;929.3142;;;;
2021/05/16 05:51:42;;;;;;;0.2;0.2;;;;;;;18.39;46.98828;929.3834;;;;
2021/05/16 05:54:07;;;;;;;0;0;;;;;;;18.24;47.72656;929.3832;;;;
2021/05/16 05:56:35;;;;;;;0;0;;;;;;;18.42;46.68848;929.3052;;;;
2021/05/16 05:58:59;;;;;;;0;0;;;;;;;18.33;46.84277;929.2751;;;;
2021/05/16 06:01:25;;;;;;;0;0;;;;;;;16.84;49.55566;929.2731;;;;
2021/05/16 06:03:50;;;;;;;0;0;;;;;;;17.86;48.16309;929.2277;;;;
2021/05/16 06:06:16;;;;;;;0.1;0;;;;;;;18.36;45.69434;929.2208;;;;
2021/05/16 06:09:22;;;;;;;0.1;0.1;;;;;;;18.95;44.4873;929.1839;;;;
2021/05/16 06:11:47;;;;;;;0;0;;;;;;;20.67;42.67383;929.1579;;;;
2021/05/16 06:14:12;;;;;;;0.1;0;;;;;;;22;37.97266;929.0914;;;;
2021/05/16 06:16:38;;;;;;;0;0;;;;;;;22.53;38.57031;929.0826;;;;
2021/05/16 06:19:03;;;;;;;0.1;0;;;;;;;22.11;37.23242;929.0694;;;;
2021/05/16 06:21:30;;;;;;;0;0;;;;;;;17.98;45.00488;929.1301;;;;
2021/05/16 06:24:04;;;;;;;0;0;;;;;;;19.3;48.25;929.0669;;;;
2021/05/16 06:26:20;;;;;;;0;0;;;;;;;20.63;40.88281;929.0552;;;;
2021/05/16 06:28:45;;;;;;;0;0;;;;;;;20.81;40.93457;929.1141;;;;
2021/05/16 06:31:12;;;;;;;0;0;;;;;;;20.23;42.25781;929.0733;;;;
2021/05/16 06:33:36;;;;;;;0.1;0.1;;;;;;;21.16;42.70898;929.1364;;;;
2021/05/16 06:36:03;;;;;;;0;0;;;;;;;21.02;38.88477;929.1584;;;;
2021/05/16 06:38:28;;;;;;;0;0;;;;;;;19.49;44.25;929.0826;;;;
2021/05/16 06:40:53;;;;;;;0;0;;;;;;;17.28;49.37402;929.1445;;;;
2021/05/16 06:43:18;;;;;;;0;0;;;;;;;16.13;52.65723;929.1409;;;;
2021/05/16 06:45:43;;;;;;;0;0;;;;;;;15.4;55.84863;929.1746;;;;
2021/05/16 06:48:08;;;;;;;0.1;0.1;;;;;;;14.34;57.89063;929.2238;;;;
2021/05/16 06:50:33;;;;;;;0;0;;;;;;;13.77;59.98926;929.2303;;;;
2021/05/16 06:53:00;;;;;;;0.1;0;;;;;;;13.29;62.3457;929.185;;;;
2021/05/16 06:55:25;;;;;;;0.1;0.1;;;;;;;13.12;64.21777;929.1581;;;;
2021/05/16 06:57:51;;;;;;;0;0;;;;;;;13.04;64.52637;929.2321;;;;
2021/05/16 07:00:16;;;;;;;0.1;0;;;;;;;12.92;65.3252;929.2479;;;;
2021/05/16 07:03:44;;;;;;;0;0;;;;;;;13.1;65.78711;929.3047;;;;
2021/05/16 07:06:07;;;;;;;0;0;;;;;;;13.23;68.49609;929.2554;;;;
2021/05/16 07:08:33;;;;;;;0;0;;;;;;;13.28;70.2959;929.2084;;;;
2021/05/16 07:10:57;;;;;;;0.1;0.1;;;;;;;13.2;66.86035;929.202;;;;
2021/05/16 07:13:23;;;;;;;0;0;;;;;;;13.13;67.11426;929.2516;;;;
2021/05/16 07:15:48;;;;;;;0;0;;;;;;;13;68.94141;929.2564;;;;
2021/05/16 07:18:13;;;;;;;0.2;0;;;;;;;13.18;70.6709;929.2455;;;;
2021/05/16 07:20:39;;;;;;;0;0;;;;;;;12.85;68.31055;929.2648;;;;
2021/05/16 07:23:04;;;;;;;0;0;;;;;;;12.4;70.31543;929.2595;;;;
2021/05/16 07:25:29;;;;;;;0;0;;;;;;;12.13;72.94141;929.2911;;;;
2021/05/16 07:27:55;;;;;;;0;0;;;;;;;12.06;71.89844;929.2352;;;;
2021/05/16 07:30:21;;;;;;;0;0;;;;;;;11.94;70.85938;929.1931;;;;
2021/05/16 07:32:45;;;;;;;0.1;0.1;;;;;;;12.22;72.22168;929.2297;;;;
2021/05/16 07:35:11;;;;;;;0.2;0.2;;;;;;;12.43;70.9502;929.3041;;;;
2021/05/16 07:37:36;;;;;;;0.1;0.1;;;;;;;12.4;69.78613;929.2108;;;;
2021/05/16 07:40:02;;;;;;;0.4;0.1;;;;;;;12.63;69.47949;929.2244;;;;
2021/05/16 07:42:27;;;;;;;0.3;0.2;;;;;;;12.63;68.36719;929.2269;;;;
2021/05/16 07:44:53;;;;;;;0.1;0.1;;;;;;;12.68;69.94629;929.2391;;;;
2021/05/16 07:47:18;;;;;;;0.3;0.2;;;;;;;12.73;70;929.1944;;;;
2021/05/16 07:49:45;;;;;;;0.1;0.1;;;;;;;12.95;69.08398;929.1372;;;;
2021/05/16 07:52:10;;;;;;;0.1;0.1;;;;;;;12.98;69.21484;929.1912;;;;
2021/05/16 07:54:35;;;;;;;0.2;0.1;;;;;;;12.93;70.78027;929.282;;;;
2021/05/16 07:57:01;;;;;;;0.1;0.1;;;;;;;12.94;71.26367;929.3203;;;;
2021/05/16 07:59:26;;;;;;;0.1;0.1;;;;;;;12.92;69.45703;929.2967;;;;
2021/05/16 08:01:52;;;;;;;0.6;0.6;;;;;;;12.92;70.50293;929.3182;;;;
2021/05/16 08:04:17;;;;;;;0.1;0.1;;;;;;;12.89;69.7168;929.3594;;;;
2021/05/16 08:06:43;;;;;;;0.3;0.2;;;;;;;13.04;68.76367;929.3848;;;;
2021/05/16 08:09:08;;;;;;;0.1;0.1;;;;;;;13.12;67.61621;929.3469;;;;
2021/05/16 08:11:34;;;;;;;0.1;0;;;;;;;13.07;68.69043;929.3627;;;;
2021/05/16 08:13:59;;;;;;;0.1;0.1;;;;;;;13.26;67.53516;929.3797;;;;
2021/05/16 08:16:27;;;;;;;0.2;0.1;;;;;;;13.25;68.77539;929.3111;;;;
2021/05/16 08:18:52;;;;;;;1.2;0.6;;;;;;;13.47;69.87988;929.2894;;;;
2021/05/16 08:21:17;;;;;;;0.1;0.1;;;;;;;13.36;68.4707;929.3391;;;;
2021/05/16 08:23:43;;;;;;;0.1;0.1;;;;;;;13.58;67.16016;929.2837;;;;
2021/05/16 08:26:08;;;;;;;0.5;0.3;;;;;;;13.64;70.15918;929.3933;;;;
2021/05/16 08:28:33;;;;;;;0.1;0.1;;;;;;;13.78;68.86914;929.3198;;;;
2021/05/16 08:30:59;;;;;;;0.1;0.1;;;;;;;13.8;68.78125;929.3267;;;;
2021/05/16 08:33:24;;;;;;;0.1;0;;;;;;;13.85;67.5459;929.3549;;;;
2021/05/16 08:35:50;;;;;;;1.9;0.2;;;;;;;13.56;69.03223;929.4039;;;;
2021/05/16 08:38:16;;;;;;;0.1;0.1;;;;;;;13.71;66.38672;929.3898;;;;
2021/05/16 08:41:48;;;;;;;0.1;0.1;;;;;;;13.72;67.89453;929.3384;;;;
2021/05/16 08:44:13;;;;;;;0.2;0.2;;;;;;;13.88;65.26172;929.4103;;;;
2021/05/16 08:46:38;;;;;;;0.1;0.1;;;;;;;13.93;67.40918;929.4535;;;;
2021/05/16 08:49:03;;;;;;;0.1;0.1;;;;;;;13.74;68.58789;929.4925;;;;
2021/05/16 08:51:28;;;;;;;0.8;0.5;;;;;;;13.87;67.59473;929.4906;;;;
2021/05/16 08:53:54;;;;;;;0.3;0.3;;;;;;;13.63;66.07617;929.4495;;;;
2021/05/16 08:56:19;;;;;;;0.2;0.1;;;;;;;13.55;68.86816;929.493;;;;
2021/05/16 08:58:45;;;;;;;0.6;0.1;;;;;;;13.45;69.99023;929.5466;;;;
2021/05/16 09:01:10;;;;;;;0.1;0.1;;;;;;;13.38;68.875;929.5889;;;;
2021/05/16 09:03:35;;;;;;;0.5;0.2;;;;;;;13.38;67.66992;929.5561;;;;
2021/05/16 09:06:33;;;;;;;3.5;0.5;;;;;;;13.37;65.79395;929.6083;;;;
2021/05/16 09:08:59;;;;;;;0.1;0.1;;;;;;;13.51;68.74707;929.6511;;;;
2021/05/16 09:11:24;;;;;;;0;0;;;;;;;13.49;66.75488;929.6211;;;;
2021/05/16 09:13:53;;;;;;;0;0;;;;;;;13.32;63.82129;929.5731;;;;
2021/05/16 09:16:14;;;;;;;0;0;;;;;;;13.31;66.07129;929.5652;;;;
2021/05/16 09:18:39;;;;;;;0.2;0.2;;;;;;;13.68;66.88867;929.5215;;;;
2021/05/16 09:21:04;;;;;;;0.1;0.1;;;;;;;13.97;64.18262;929.5225;;;;
2021/05/16 09:23:29;;;;;;;0.1;0.1;;;;;;;14.45;65.69238;929.5379;;;;
2021/05/16 09:25:54;;;;;;;0.2;0.2;;;;;;;15.01;62.8584;929.4019;;;;
2021/05/16 09:28:20;;;;;;;1;0.5;;;;;;;15.72;58.99805;929.3074;;;;
2021/05/16 09:30:46;;;;;;;0.5;0.3;;;;;;;17.03;59.27734;929.3329;;;;
2021/05/16 09:33:12;;;;;;;0;0;;;;;;;16.43;55.7832;929.2563;;;;
2021/05/16 09:35:37;;;;;;;0.1;0.1;;;;;;;16.25;57.56445;929.2609;;;;
2021/05/16 09:38:02;;;;;;;0.5;0.1;;;;;;;16.03;52.18262;929.1331;;;;
2021/05/16 09:40:28;;;;;;;0.3;0.2;;;;;;;16.66;54.26074;929.132;;;;
2021/05/16 09:42:53;;;;;;;1;0.4;;;;;;;17.17;54.46289;929.1188;;;;
2021/05/16 09:45:18;;;;;;;0.1;0.1;;;;;;;16.85;51.26074;929.1205;;;;
2021/05/16 09:47:44;;;;;;;2.1;0.4;;;;;;;17.27;53.27051;929.1383;;;;
2021/05/16 09:50:09;;;;;;;0.1;0.1;;;;;;;17.39;51.96094;929.0719;;;;
2021/05/16 09:52:34;;;;;;;0.2;0.1;;;;;;;17.21;52.95996;928.9621;;;;
2021/05/16 09:54:59;;;;;;;0.1;0.1;;;;;;;16.86;50.72949;928.9716;;;;
2021/05/16 09:57:26;;;;;;;0;0;;;;;;;16.51;54.82129;928.9615;;;;
2021/05/16 09:59:51;;;;;;;0;0;;;;;;;16.66;56.75;928.9344;;;;
2021/05/16 10:02:16;;;;;;;0;0;;;;;;;16.8;54.8916;928.9402;;;;
2021/05/16 10:04:41;;;;;;;0;0;;;;;;;17.32;55.26953;928.9164;;;;
2021/05/16 10:07:06;;;;;;;0.1;0.1;;;;;;;17.75;49.33496;928.8154;;;;
2021/05/16 10:09:32;;;;;;;0;0;;;;;;;18.31;47.46777;928.902;;;;
2021/05/16 10:11:58;;;;;;;0;0;;;;;;;18.16;46.5791;928.8337;;;;
2021/05/16 10:14:25;;;;;;;2.4;0.1;;;;;;;17.94;46.99805;928.8167;;;;
2021/05/16 10:16:49;;;;;;;0;0;;;;;;;18.11;48.68945;928.6936;;;;
2021/05/16 10:19:15;;;;;;;0.4;0.1;;;;;;;18.63;47.21094;928.6359;;;;
2021/05/16 10:21:40;;;;;;;0;0;;;;;;;19.2;47.44727;928.5765;;;;
2021/05/16 10:24:06;;;;;;;0;0;;;;;;;20.16;46.70996;928.5981;;;;
2021/05/16 10:26:31;;;;;;;0.6;0.2;;;;;;;21.1;42.57617;928.5334;;;;
2021/05/16 10:28:57;;;;;;;0.1;0.1;;;;;;;21.06;43.56445;928.5815;;;;
2021/05/16 10:31:22;;;;;;;0.1;0.1;;;;;;;21.23;41.51172;928.5712;;;;
2021/05/16 10:33:47;;;;;;;0.1;0.1;;;;;;;20.97;45.10059;928.5619;;;;
2021/05/16 10:36:13;;;;;;;1.7;0.2;;;;;;;20.5;44.58398;928.5558;;;;
2021/05/16 10:38:38;;;;;;;0.4;0.1;;;;;;;20.67;42.93164;928.5533;;;;
2021/05/16 10:41:03;;;;;;;0;0;;;;;;;20.75;42.77539;928.5442;;;;
2021/05/16 10:43:29;;;;;;;0.1;0.1;;;;;;;20.53;45.37109;928.4955;;;;
2021/05/16 10:45:53;;;;;;;0.4;0.1;;;;;;;20.69;44.3125;928.4853;;;;
2021/05/16 10:48:20;;;;;;;0;0;;;;;;;20.18;45.1709;928.4874;;;;
2021/05/16 10:50:45;;;;;;;0.2;0.2;;;;;;;20.24;45.3291;928.3936;;;;
2021/05/16 10:53:09;;;;;;;0;0;;;;;;;20.17;45.50879;928.3114;;;;
2021/05/16 10:55:35;;;;;;;0.3;0.1;;;;;;;20.27;45.88184;928.2134;;;;
2021/05/16 10:58:01;;;;;;;0;0;;;;;;;21.17;42.70996;928.1166;;;;
2021/05/16 11:00:26;;;;;;;0;0;;;;;;;21.2;42.11719;928.0412;;;;
2021/05/16 11:02:51;;;;;;;0;0;;;;;;;21.49;40.91504;927.9278;;;;
2021/05/16 11:05:17;;;;;;;1;0.3;;;;;;;21.64;40.15625;927.9197;;;;
2021/05/16 11:07:42;;;;;;;0;0;;;;;;;21.97;37.51367;927.9158;;;;
2021/05/16 11:10:07;;;;;;;0.2;0.1;;;;;;;21.99;38.27734;927.9071;;;;
2021/05/16 11:12:32;;;;;;;1.5;0.4;;;;;;;21.52;38.37793;927.9325;;;;
2021/05/16 11:14:57;;;;;;;0.3;0.2;;;;;;;21.59;38.42969;927.9319;;;;
2021/05/16 11:17:26;;;;;;;0.2;0;;;;;;;21.31;34.67285;927.8957;;;;
2021/05/16 11:20:21;;;;;;;0;0;;;;;;;20.82;33.95703;927.9309;;;;
2021/05/16 11:22:47;;;;;;;0.3;0.2;;;;;;;20.13;37.9541;927.7933;;;;
2021/05/16 11:25:12;;;;;;;0.1;0.1;;;;;;;19.98;36.14355;927.8109;;;;
2021/05/16 11:27:37;;;;;;;0.1;0.1;;;;;;;20.48;37.16602;927.6713;;;;
2021/05/16 11:30:02;;;;;;;0.1;0.1;;;;;;;20.91;36.34961;927.6418;;;;
2021/05/16 11:32:31;;;;;;;0;0;;;;;;;21.19;34.10156;927.5149;;;;
2021/05/16 11:34:52;;;;;;;0.1;0;;;;;;;21.35;34.79297;927.5538;;;;
2021/05/16 11:37:18;;;;;;;0;0;;;;;;;21.13;33.39551;927.5153;;;;
2021/05/16 11:39:43;;;;;;;0.1;0.1;;;;;;;21.44;34.84766;927.4369;;;;
2021/05/16 11:42:07;;;;;;;0;0;;;;;;;20.92;36.08008;927.4175;;;;
2021/05/16 11:44:34;;;;;;;1;0.2;;;;;;;20.65;39.44727;927.3928;;;;
2021/05/16 11:46:58;;;;;;;0.1;0.1;;;;;;;21.02;36.4043;927.2776;;;;
2021/05/16 11:49:24;;;;;;;2.7;0.4;;;;;;;21.2;38.70117;927.3675;;;;
2021/05/16 11:51:49;;;;;;;0.1;0.1;;;;;;;21.44;38.61523;927.3569;;;;
2021/05/16 11:54:16;;;;;;;0.6;0.2;;;;;;;21.06;38.62891;927.3527;;;;
2021/05/16 11:56:41;;;;;;;0.5;0.3;;;;;;;21.21;36.78223;927.2377;;;;
2021/05/16 11:59:06;;;;;;;0.1;0.1;;;;;;;21.59;38.62891;927.1888;;;;
2021/05/16 12:01:31;;;;;;;0.2;0.2;;;;;;;21.89;38.47949;927.2411;;;;
2021/05/16 12:03:56;;;;;;;0.2;0.1;;;;;;;21.79;37.83887;927.2503;;;;
2021/05/16 12:06:22;;;;;;;0.2;0.1;;;;;;;21.68;36.83398;927.1228;;;;
2021/05/16 12:08:47;;;;;;;0.7;0.1;;;;;;;21.39;37.12598;927.1376;;;;
2021/05/16 12:11:13;;;;;;;0.4;0.3;;;;;;;20.87;40.76465;927.1786;;;;
2021/05/16 12:13:37;;;;;;;0.2;0.2;;;;;;;20.35;39.8877;927.3116;;;;
2021/05/16 12:16:02;;;;;;;1.5;0.3;;;;;;;20.77;39.81934;927.265;;;;
2021/05/16 12:18:28;;;;;;;0.1;0.1;;;;;;;20.35;39.60742;927.3563;;;;
2021/05/16 12:20:52;;;;;;;0.3;0.2;;;;;;;20.68;39.28613;927.2512;;;;
2021/05/16 12:23:18;;;;;;;0.5;0.3;;;;;;;20.74;38.98828;927.1018;;;;
2021/05/16 12:25:43;;;;;;;0.1;0.1;;;;;;;20.64;39.65723;927.181;;;;
2021/05/16 12:28:08;;;;;;;0.1;0.1;;;;;;;20.48;41.02051;927.1583;;;;
2021/05/16 12:30:33;;;;;;;0.7;0.5;;;;;;;20.64;40.13672;927.1567;;;;
2021/05/16 12:32:58;;;;;;;0.4;0.1;;;;;;;20.29;40.78027;927.1488;;;;
2021/05/16 12:35:24;;;;;;;0;0;;;;;;;20.13;40.95313;927.125;;;;
2021/05/16 12:37:50;;;;;;;0.3;0.1;;;;;;;19.65;44.37109;927.1183;;;;
2021/05/16 12:40:15;;;;;;;0.1;0.1;;;;;;;19.59;41.82422;927.0528;;;;
2021/05/16 12:42:41;;;;;;;0.1;0.1;;;;;;;19.47;40.76367;927.0658;;;;
2021/05/16 12:45:05;;;;;;;1;0.4;;;;;;;19.43;42.53125;927.1141;;;;
2021/05/16 12:47:31;;;;;;;0;0;;;;;;;19.23;41.02148;926.9938;;;;
2021/05/16 12:49:56;;;;;;;0;0;;;;;;;19.21;40.84473;926.8434;;;;
2021/05/16 12:52:21;;;;;;;0.6;0.4;;;;;;;18.54;44.01563;926.9333;;;;
2021/05/16 12:54:46;;;;;;;0.8;0.3;;;;;;;18.34;42.29785;926.9933;;;;
2021/05/16 12:57:19;;;;;;;3.6;0.3;;;;;;;18.51;40.6875;926.9771;;;;
2021/05/16 12:59:36;;;;;;;0.1;0.1;;;;;;;18.73;41.37012;927.0198;;;;
2021/05/16 13:02:01;;;;;;;0.4;0.1;;;;;;;18.79;40.71191;927.041;;;;
2021/05/16 13:04:26;;;;;;;0.2;0.2;;;;;;;18.83;39.4834;927.0758;;;;
2021/05/16 13:06:51;;;;;;;0.1;0.1;;;;;;;18.93;40.60938;927.0775;;;;
2021/05/16 13:09:17;;;;;;;0.1;0.1;;;;;;;18.66;39.45605;927.0597;;;;
2021/05/16 13:11:43;;;;;;;0;0;;;;;;;17.99;40.33691;927.0574;;;;
2021/05/16 13:14:08;;;;;;;0.3;0.2;;;;;;;17.35;44.90527;927.1097;;;;
2021/05/16 13:16:33;;;;;;;0.1;0;;;;;;;17.13;45.67188;927.1747;;;;
2021/05/16 13:18:58;;;;;;;0;0;;;;;;;17.23;44.42871;927.142;;;;
2021/05/16 13:21:24;;;;;;;0.2;0.2;;;;;;;17.3;43.92676;927.1411;;;;
2021/05/16 13:23:49;;;;;;;1.9;0.5;;;;;;;17.32;46.11914;927.2114;;;;
2021/05/16 13:26:14;;;;;;;0.6;0.2;;;;;;;17.4;45.45605;927.2672;;;;
2021/05/16 13:28:39;;;;;;;0.1;0;;;;;;;17.02;43.86426;927.3809;;;;
2021/05/16 13:31:05;;;;;;;0;0;;;;;;;17.17;43.31055;927.3979;;;;
2021/05/16 13:33:29;;;;;;;0.1;0.1;;;;;;;17.34;44.27734;927.4971;;;;
2021/05/16 13:35:54;;;;;;;0.2;0.2;;;;;;;17.16;45.91797;927.5364;;;;
2021/05/16 13:38:19;;;;;;;0.5;0.3;;;;;;;17.24;47.67676;927.5992;;;;
2021/05/16 13:40:46;;;;;;;0.1;0.1;;;;;;;16.94;48.86035;927.6537;;;;
2021/05/16 13:43:13;;;;;;;1.2;0.4;;;;;;;16.41;53.92969;927.8085;;;;
2021/05/16 13:45:38;;;;;;;0.4;0.1;;;;;;;16.14;55.78125;927.8267;;;;
2021/05/16 13:48:03;;;;;;;0.3;0.3;;;;;;;15.81;58.53516;927.8963;;;;
2021/05/16 13:50:28;;;;;;;0.4;0.3;;;;;;;15.6;60.13574;927.9514;;;;
2021/05/16 13:52:54;;;;;;;1.5;0.1;;;;;;;14.94;62.35254;927.9285;;;;
2021/05/16 13:55:20;;;;;;;0.1;0.1;;;;;;;14.38;65.49805;927.9465;;;;
2021/05/16 13:57:45;;;;;;;0;0;;;;;;;14.3;67.14355;927.9529;;;;
2021/05/16 14:00:11;;;;;;;0.4;0.3;;;;;;;14.2;67.56641;927.907;;;;
2021/05/16 14:02:36;;;;;;;0.1;0.1;;;;;;;14.03;68.25293;927.8311;;;;
2021/05/16 14:05:02;;;;;;;0.4;0.2;;;;;;;14.08;68.7793;927.5379;;;;
2021/05/16 14:07:26;;;;;;;1;0.6;;;;;;;14.38;70.7041;927.2338;;;;
2021/05/16 14:09:51;;;;;;;3.3;0.5;;;;;;;14.78;70.05371;927.2397;;;;
2021/05/16 14:12:16;;;;;;;0;0;;;;;;;15.18;66.05566;927.2293;;;;
2021/05/16 14:14:42;;;;;;;3.4;0.5;;;;;;;15.56;66.2168;927.1364;;;;
2021/05/16 14:17:08;;;;;;;0.3;0.1;;;;;;;16.12;64.17383;927.0025;;;;
2021/05/16 14:19:33;;;;;;;0.2;0.2;;;;;;;16.52;60.16992;926.8292;;;;
2021/05/16 14:21:59;;;;;;;0.1;0.1;;;;;;;16.19;58.64355;926.6286;;;;
2021/05/16 14:24:24;;;;;;;0.1;0.1;;;;;;;16.25;57.58789;926.554;;;;
2021/05/16 14:26:50;;;;;;;0.2;0.2;;;;;;;16.56;58.24316;926.4333;;;;
2021/05/16 14:29:15;;;;;;;0.2;0.2;;;;;;;16.28;58.72656;926.4002;;;;
2021/05/16 14:31:42;;;;;;;0.1;0.1;;;;;;;15.91;57.28809;926.44;;;;
2021/05/16 14:34:07;;;;;;;0;0;;;;;;;16.24;57.84082;926.4916;;;;
2021/05/16 14:36:34;;;;;;;0.3;0.2;;;;;;;16.72;55.84277;926.538;;;;
2021/05/16 14:38:59;;;;;;;0.3;0.1;;;;;;;17.09;54.4541;926.5253;;;;
2021/05/16 14:41:25;;;;;;;0.1;0.1;;;;;;;17.05;55.52637;926.4416;;;;
2021/05/16 14:43:54;;;;;;;0.1;0.1;;;;;;;16.88;53.6377;926.365;;;;
2021/05/16 14:46:15;;;;;;;0.1;0.1;;;;;;;16.53;55.74805;926.3187;;;;
2021/05/16 14:48:43;;;;;;;0.9;0.4;;;;;;;16.34;57.85449;926.4186;;;;
2021/05/16 14:51:07;;;;;;;0;0;;;;;;;16.15;59.34473;926.5309;;;;
2021/05/16 14:53:30;;;;;;;0.4;0.3;;;;;;;16.36;57.61426;926.491;;;;
2021/05/16 14:55:55;;;;;;;1.1;0.3;;;;;;;16.35;53.3418;926.391;;;;
2021/05/16 14:58:22;;;;;;;0.6;0.3;;;;;;;16.23;53.57227;926.3817;;;;
2021/05/16 15:00:47;;;;;;;0.2;0.2;;;;;;;16.23;55.67773;926.4235;;;;
2021/05/16 15:03:13;;;;;;;0.2;0.2;;;;;;;16.37;54.16602;926.5463;;;;
2021/05/16 15:05:38;;;;;;;1.2;0.4;;;;;;;16.29;55.30176;926.4916;;;;
2021/05/16 15:08:03;;;;;;;0;0;;;;;;;16.22;54.27539;926.5017;;;;
2021/05/16 15:10:28;;;;;;;0.9;0.3;;;;;;;16.01;50.35254;926.4659;;;;
2021/05/16 15:12:53;;;;;;;0.1;0.1;;;;;;;15.72;50.58496;926.5064;;;;
2021/05/16 15:15:19;;;;;;;0.1;0.1;;;;;;;15.55;52.4248;926.6199;;;;
2021/05/16 15:17:44;;;;;;;0.2;0.1;;;;;;;15.6;54.05957;926.7302;;;;
2021/05/16 15:20:11;;;;;;;0.2;0.1;;;;;;;15.67;54.96973;926.7566;;;;
2021/05/16 15:22:36;;;;;;;0.1;0.1;;;;;;;15.68;54.63574;926.798;;;;
2021/05/16 15:25:01;;;;;;;0.1;0;;;;;;;15.59;53.90723;926.8117;;;;
2021/05/16 15:27:27;;;;;;;1.6;0.2;;;;;;;15.43;53.2998;926.7821;;;;
2021/05/16 15:29:52;;;;;;;0.2;0.1;;;;;;;15.49;54.72754;926.7297;;;;
2021/05/16 15:32:18;;;;;;;0.2;0.1;;;;;;;15.44;58.45215;926.7408;;;;
2021/05/16 15:34:43;;;;;;;0.2;0.2;;;;;;;15.58;60.19043;926.668;;;;
2021/05/16 15:37:08;;;;;;;0;0;;;;;;;15.59;58.82813;926.6978;;;;
2021/05/16 15:39:33;;;;;;;0.3;0.1;;;;;;;15.37;58.63867;926.6983;;;;
2021/05/16 15:41:59;;;;;;;0.7;0.4;;;;;;;15.28;60.26465;926.6311;;;;
2021/05/16 15:44:24;;;;;;;0.5;0.2;;;;;;;15.23;63.70898;926.7399;;;;
2021/05/16 15:46:49;;;;;;;3.4;0.5;;;;;;;15.08;64.36914;926.7427;;;;